Terminal Aerodrome Forecast
Issued by NWS

Home | Current Version | Previous Version | Text Only | Print | Product List | Glossary On
Versions: 1 2 3 4 5 6 7 8 9 10 11 12 13 14 15 16 17 18 19 20 21 22 23 24 25 26 27 28 29 30 31 32
000
FTAK31 PANC 090534
TAFADU
TAF
PADU 090534Z 0906/1006 31008KT P6SM OVC035
      TEMPO 0906/0909 BKN030 OVC040
     FM090900 32008KT P6SM SCT035 OVC050
     FM091500 32010KT P6SM -SHSN SCT025 OVC050
     FM092000 34012G22KT P6SM -SHSN BKN025 OVC050
     FM100300 34010KT P6SM SCT025 BKN050
      AMD LTD TO CLD VIS AND WX TIL 091600=

USA.gov is the U.S. government's official web portal to all federal, state and local government web resources and services.